Terminal Aerodrome Forecast
Issued by NWS Wilmington, NC

Home | Current Version | Previous Version | Text Only | Print | Product List | Glossary On
Versions: 1 2 3 4 5 6 7 8 9 10 11 12 13
296
FTUS42 KILM 282329
TAFILM
TAF
KILM 282329Z 2900/2924 06010KT P6SM VCSH SCT040 BKN100
     FM290400 05006KT P6SM -SHRA SCT015 SCT035 BKN090
      TEMPO 2905/2909 08010KT 5SM -SHRA BKN025 OVC040
     FM291300 12010G18KT P6SM VCSH BKN025 BKN120=

USA.gov is the U.S. government's official web portal to all federal, state and local government web resources and services.